createdAt,value
2022-11-14T00:01:25.647Z,9.30
2022-11-14T00:03:54.531Z,9.40
2022-11-14T00:06:22.147Z,9.30
2022-11-14T00:08:49.675Z,9.40
2022-11-14T00:11:17.280Z,9.40
2022-11-14T00:13:45.140Z,9.40
2022-11-14T00:16:12.792Z,9.40
2022-11-14T00:18:40.445Z,9.30
2022-11-14T00:21:09.414Z,9.20
2022-11-14T00:23:37.079Z,9.30
2022-11-14T00:26:04.620Z,9.20
2022-11-14T00:28:32.488Z,9.20
2022-11-14T00:31:00.200Z,9.20
2022-11-14T00:33:27.770Z,9.20
2022-11-14T00:35:55.906Z,9.20
2022-11-14T00:38:24.926Z,9.10
2022-11-14T00:40:52.568Z,9.00
2022-11-14T00:43:20.126Z,9.00
2022-11-14T00:45:48.001Z,9.00
2022-11-14T00:48:15.980Z,9.00
2022-11-14T00:50:43.565Z,9.20
2022-11-14T00:53:11.258Z,9.10
2022-11-14T00:55:40.275Z,8.90
2022-11-14T00:58:07.952Z,9.00
2022-11-14T01:00:35.667Z,9.00
2022-11-14T01:03:03.239Z,8.80
2022-11-14T01:05:30.844Z,8.80
2022-11-14T01:07:58.481Z,8.60
2022-11-14T01:10:26.067Z,8.70
2022-11-14T01:12:55.039Z,8.80
2022-11-14T01:15:22.593Z,8.80
2022-11-14T01:17:50.165Z,8.90
2022-11-14T01:20:18.031Z,9.00
2022-11-14T01:22:45.738Z,8.70
2022-11-14T01:25:13.270Z,8.80
2022-11-14T01:27:40.818Z,8.80
2022-11-14T01:30:10.246Z,8.90
2022-11-14T01:32:37.796Z,8.90
2022-11-14T01:35:05.574Z,8.70
2022-11-14T01:37:33.162Z,8.80
2022-11-14T01:40:00.740Z,8.70
2022-11-14T01:42:28.284Z,8.70
2022-11-14T01:44:55.953Z,8.60
2022-11-14T01:47:26.747Z,8.70
2022-11-14T01:49:55.744Z,8.60
2022-11-14T01:52:24.727Z,8.50
2022-11-14T01:54:53.788Z,8.50
2022-11-14T01:57:23.506Z,8.60
2022-11-14T01:59:52.696Z,8.70
2022-11-14T02:02:21.174Z,8.50
2022-11-14T02:04:52.522Z,8.60
2022-11-14T02:07:20.604Z,8.60
2022-11-14T02:09:49.728Z,8.60
2022-11-14T02:12:18.356Z,8.50
2022-11-14T02:18:00.581Z,8.60
2022-11-14T02:20:33.171Z,8.70
2022-11-14T02:23:01.055Z,8.50
2022-11-14T02:25:28.974Z,8.70
2022-11-14T02:27:57.938Z,8.60
2022-11-14T02:30:25.722Z,8.50
2022-11-14T02:35:42.703Z,8.70
2022-11-14T02:38:10.817Z,8.60
2022-11-14T02:40:38.632Z,8.90
2022-11-14T02:43:06.723Z,8.90
2022-11-14T02:45:34.447Z,8.50
2022-11-14T02:48:02.142Z,8.50
2022-11-14T02:50:29.923Z,8.80
2022-11-14T02:52:59.117Z,8.60
2022-11-14T02:55:26.783Z,8.50
2022-11-14T02:57:54.489Z,8.60
2022-11-14T03:00:22.348Z,8.60
2022-11-14T03:02:50.017Z,8.50
2022-11-14T03:05:17.852Z,8.70
2022-11-14T03:07:45.543Z,8.70
2022-11-14T03:10:14.903Z,8.60
2022-11-14T03:12:42.743Z,8.50
2022-11-14T03:15:11.154Z,8.50
2022-11-14T03:17:38.920Z,8.70
2022-11-14T03:20:07.157Z,8.50
2022-11-14T03:22:34.868Z,8.60
2022-11-14T03:25:02.849Z,8.30
2022-11-14T03:27:32.101Z,8.60
2022-11-14T03:29:59.946Z,8.70
2022-11-14T03:32:27.915Z,8.70
2022-11-14T03:35:01.545Z,9.00
2022-11-14T03:37:29.390Z,8.50
2022-11-14T03:39:57.044Z,8.40
2022-11-14T03:42:26.441Z,8.10
2022-11-14T03:44:55.466Z,8.60
2022-11-14T03:47:23.230Z,8.50
2022-11-14T03:49:51.270Z,8.50
2022-11-14T03:52:19.226Z,8.40
2022-11-14T03:54:47.034Z,8.80
2022-11-14T03:57:14.870Z,8.50
2022-11-14T03:59:42.570Z,8.80
2022-11-14T04:02:14.427Z,8.90
2022-11-14T04:04:42.143Z,8.60
2022-11-14T04:07:09.915Z,8.60
2022-11-14T04:09:37.738Z,8.50
2022-11-14T04:12:12.802Z,8.40
2022-11-14T04:14:43.371Z,8.40
2022-11-14T04:17:11.393Z,8.50
2022-11-14T04:19:40.446Z,8.60
2022-11-14T04:22:08.406Z,8.50
2022-11-14T04:24:36.109Z,8.70
2022-11-14T04:27:04.049Z,8.30
2022-11-14T04:29:31.982Z,8.30
2022-11-14T04:31:59.763Z,8.40
2022-11-14T04:34:27.434Z,8.50
2022-11-14T04:36:56.693Z,8.60
2022-11-14T04:39:24.511Z,8.40
2022-11-14T04:41:52.208Z,8.40
2022-11-14T04:44:19.933Z,8.40
2022-11-14T04:46:47.704Z,8.30
2022-11-14T04:49:15.619Z,8.30
2022-11-14T04:51:43.724Z,8.50
2022-11-14T04:54:12.816Z,8.40
2022-11-14T04:56:44.766Z,8.40
2022-11-14T04:59:16.924Z,8.30
2022-11-14T05:01:47.552Z,8.50
2022-11-14T05:04:15.459Z,8.40
2022-11-14T05:06:43.241Z,8.30
2022-11-14T05:09:11.052Z,8.40
2022-11-14T05:11:40.166Z,8.40
2022-11-14T05:14:07.896Z,8.40
2022-11-14T05:16:35.590Z,8.50
2022-11-14T05:19:03.564Z,8.50
2022-11-14T05:21:38.919Z,8.20
2022-11-14T05:24:06.952Z,8.10
2022-11-14T05:26:34.642Z,8.10
2022-11-14T05:29:04.254Z,8.10
2022-11-14T05:31:32.085Z,8.20
2022-11-14T05:33:59.784Z,8.20
2022-11-14T05:36:27.821Z,8.50
2022-11-14T05:38:55.508Z,8.20
2022-11-14T05:41:23.405Z,8.30
2022-11-14T05:43:51.083Z,8.30
2022-11-14T05:46:20.304Z,8.30
2022-11-14T05:48:51.133Z,8.30
2022-11-14T05:51:18.894Z,8.30
2022-11-14T05:53:46.619Z,8.20
2022-11-14T05:56:14.353Z,8.10
2022-11-14T05:58:44.928Z,8.10
2022-11-14T06:01:13.650Z,8.20
2022-11-14T06:03:49.360Z,8.20
2022-11-14T06:06:17.873Z,8.10
2022-11-14T06:08:45.784Z,8.10
2022-11-14T06:11:14.808Z,8.40
2022-11-14T06:13:56.089Z,8.00
2022-11-14T06:16:24.001Z,8.00
2022-11-14T06:18:54.737Z,8.10
2022-11-14T06:21:24.841Z,8.30
2022-11-14T06:23:52.679Z,8.60
2022-11-14T06:26:21.851Z,8.00
2022-11-14T06:28:50.049Z,8.20
2022-11-14T06:31:17.897Z,8.20
2022-11-14T06:33:47.024Z,8.30
2022-11-14T06:36:16.427Z,8.50
2022-11-14T06:38:44.365Z,8.80
2022-11-14T06:41:15.919Z,8.60
2022-11-14T06:43:44.486Z,7.90
2022-11-14T06:46:13.180Z,8.20
2022-11-14T06:48:41.152Z,8.10
2022-11-14T06:51:08.879Z,8.50
2022-11-14T06:53:38.010Z,8.30
2022-11-14T06:56:06.602Z,8.30
2022-11-14T06:58:35.849Z,8.30
2022-11-14T07:01:05.453Z,8.40
2022-11-14T07:03:33.286Z,8.40
2022-11-14T07:06:01.346Z,8.30
2022-11-14T07:08:29.022Z,8.50
2022-11-14T07:11:03.786Z,8.30
2022-11-14T07:13:32.511Z,8.30
2022-11-14T07:16:00.267Z,8.40
2022-11-14T07:18:28.142Z,8.20
2022-11-14T07:20:59.313Z,8.30
2022-11-14T07:23:27.054Z,8.20
2022-11-14T07:25:54.671Z,8.00
2022-11-14T07:28:23.863Z,8.10
2022-11-14T07:30:51.521Z,8.10
2022-11-14T07:33:19.405Z,8.20
2022-11-14T07:35:47.012Z,8.30
2022-11-14T07:38:14.769Z,8.00
2022-11-14T07:40:42.623Z,8.10
2022-11-14T07:43:10.343Z,8.10
2022-11-14T07:45:39.401Z,8.40
2022-11-14T07:48:07.110Z,8.10
2022-11-14T07:50:35.033Z,8.20
2022-11-14T07:53:02.905Z,8.00
2022-11-14T07:55:30.649Z,8.00
2022-11-14T07:58:00.314Z,8.00
2022-11-14T08:00:28.245Z,8.00
2022-11-14T08:03:00.283Z,8.10
2022-11-14T08:05:27.964Z,8.00
2022-11-14T08:07:55.967Z,8.20
2022-11-14T08:10:23.673Z,8.20
2022-11-14T08:13:29.770Z,8.10
2022-11-14T08:15:48.783Z,8.10
2022-11-14T08:18:21.355Z,8.00
2022-11-14T08:20:49.107Z,8.00
2022-11-14T08:23:26.545Z,8.00
2022-11-14T08:25:54.196Z,7.70
2022-11-14T08:28:21.909Z,8.10
2022-11-14T08:30:49.694Z,8.20
2022-11-14T08:33:17.463Z,8.20
2022-11-14T08:35:46.581Z,8.00
2022-11-14T08:38:20.042Z,8.00
2022-11-14T08:40:47.876Z,8.00
2022-11-14T08:43:15.586Z,8.20
2022-11-14T08:45:46.285Z,7.80
2022-11-14T08:48:14.057Z,8.00
2022-11-14T08:50:41.690Z,8.00
2022-11-14T08:53:10.752Z,7.90
2022-11-14T08:55:38.419Z,7.90
2022-11-14T08:58:06.145Z,8.10
2022-11-14T09:00:33.896Z,8.20
2022-11-14T09:03:29.518Z,8.40
2022-11-14T09:09:28.837Z,8.00
2022-11-14T09:11:56.384Z,8.10
2022-11-14T09:14:23.980Z,8.20
2022-11-14T09:16:51.553Z,8.10
2022-11-14T09:19:19.274Z,8.10
2022-11-14T09:21:46.806Z,8.20
2022-11-14T09:24:14.515Z,8.10
2022-11-14T09:26:43.490Z,8.10
2022-11-14T09:29:11.070Z,8.00
2022-11-14T09:31:38.685Z,8.10
2022-11-14T09:34:06.251Z,8.10
2022-11-14T09:36:33.939Z,8.20
2022-11-14T09:39:01.517Z,8.20
2022-11-14T09:41:37.794Z,8.30
2022-11-14T09:44:29.955Z,8.20
2022-11-14T09:46:59.070Z,8.20
2022-11-14T09:49:28.066Z,8.10
2022-11-14T09:51:58.012Z,8.10
2022-11-14T09:54:26.946Z,8.40
2022-11-14T09:56:54.853Z,8.30
2022-11-14T09:59:23.890Z,8.40
2022-11-14T10:01:56.837Z,8.40
2022-11-14T10:04:29.482Z,8.50
2022-11-14T10:07:02.710Z,8.60
2022-11-14T10:09:48.912Z,8.40
2022-11-14T10:12:22.346Z,8.50
2022-11-14T10:15:06.363Z,8.50
2022-11-14T10:17:43.584Z,8.50
2022-11-14T10:20:18.887Z,8.40
2022-11-14T10:23:01.027Z,8.50
2022-11-14T10:25:32.082Z,8.60
2022-11-14T10:28:05.511Z,8.50
2022-11-14T10:30:39.516Z,8.70
2022-11-14T10:33:15.024Z,8.80
2022-11-14T10:35:44.223Z,8.80
2022-11-14T10:38:14.316Z,8.80
2022-11-14T10:40:43.631Z,8.80
2022-11-14T10:43:23.708Z,8.70
2022-11-14T10:45:54.472Z,8.80
2022-11-14T10:48:29.824Z,8.90
2022-11-14T10:50:59.007Z,8.90
2022-11-14T10:53:30.228Z,9.00
2022-11-14T10:56:04.270Z,9.00
2022-11-14T10:58:46.812Z,9.10
2022-11-14T11:01:35.121Z,9.00
2022-11-14T11:04:14.474Z,9.30
2022-11-14T11:06:42.209Z,9.10
2022-11-14T11:09:27.664Z,9.30
2022-11-14T11:11:57.335Z,9.40
2022-11-14T11:14:25.001Z,9.60
2022-11-14T11:17:07.628Z,9.20
2022-11-14T11:19:36.531Z,9.40
2022-11-14T11:22:04.402Z,9.50
2022-11-14T11:24:32.894Z,9.30
2022-11-14T11:27:22.595Z,9.40
2022-11-14T11:30:02.432Z,9.40
2022-11-14T11:32:30.255Z,9.20
2022-11-14T11:35:00.407Z,9.30
2022-11-14T11:40:03.372Z,9.30
2022-11-14T11:43:23.880Z,9.30
2022-11-14T11:45:22.066Z,9.40
2022-11-14T11:47:53.973Z,9.40
2022-11-14T11:50:24.524Z,9.30
2022-11-14T11:52:57.426Z,9.40
2022-11-14T11:55:26.144Z,9.30
2022-11-14T11:57:57.615Z,9.20
2022-11-14T12:00:25.386Z,9.30
2022-11-14T12:02:53.765Z,9.30
2022-11-14T12:05:26.641Z,9.20
2022-11-14T12:07:58.233Z,9.20
2022-11-14T12:10:27.511Z,9.40
2022-11-14T12:13:02.572Z,9.40
2022-11-14T12:15:33.094Z,9.40
2022-11-14T12:18:19.376Z,9.50
2022-11-14T12:20:51.395Z,9.50
2022-11-14T12:23:36.944Z,9.70
2022-11-14T12:26:11.788Z,9.70
2022-11-14T12:29:00.467Z,9.70
2022-11-14T12:31:28.724Z,9.70
2022-11-14T12:33:58.568Z,9.70
2022-11-14T12:36:30.865Z,9.80
2022-11-14T12:38:59.369Z,9.70
2022-11-14T12:41:28.090Z,9.70
2022-11-14T12:44:17.757Z,9.70
2022-11-14T12:47:15.405Z,9.70
2022-11-14T12:50:02.213Z,9.80
2022-11-14T12:52:48.579Z,9.70
2022-11-14T12:55:37.152Z,9.80
2022-11-14T12:58:07.721Z,9.70
2022-11-14T13:00:36.392Z,9.80
2022-11-14T13:03:17.881Z,9.80
2022-11-14T13:06:00.226Z,9.80
2022-11-14T13:09:01.229Z,9.70
2022-11-14T13:12:03.661Z,9.80
2022-11-14T13:14:49.004Z,9.70
2022-11-14T13:17:44.193Z,9.60
2022-11-14T13:20:44.204Z,9.70
2022-11-14T13:23:30.763Z,9.70
2022-11-14T13:26:13.640Z,9.50
2022-11-14T13:28:47.912Z,9.60
2022-11-14T13:31:20.301Z,9.60
2022-11-14T13:33:49.777Z,9.60
2022-11-14T13:36:23.514Z,9.70
2022-11-14T13:39:10.035Z,9.70
2022-11-14T13:41:57.443Z,9.70
2022-11-14T13:44:43.105Z,9.60
2022-11-14T13:47:20.536Z,9.60
2022-11-14T13:49:54.983Z,9.70
2022-11-14T13:52:22.663Z,9.70
2022-11-14T13:54:50.657Z,9.70
2022-11-14T13:57:23.597Z,9.70
2022-11-14T13:59:57.243Z,9.60
2022-11-14T14:02:37.436Z,9.50
2022-11-14T14:05:12.051Z,9.60
2022-11-14T14:07:45.147Z,9.60
2022-11-14T14:10:21.344Z,9.70
2022-11-14T14:12:55.158Z,9.60
2022-11-14T14:15:27.628Z,9.50
2022-11-14T14:18:01.829Z,9.60
2022-11-14T14:20:35.295Z,9.50
2022-11-14T14:23:09.251Z,9.50
2022-11-14T14:25:42.257Z,9.50
2022-11-14T14:28:12.427Z,9.50
2022-11-14T14:30:41.565Z,9.50
2022-11-14T14:33:13.543Z,9.40
2022-11-14T14:35:49.702Z,9.40
2022-11-14T14:38:23.578Z,9.40
2022-11-14T14:40:51.352Z,9.30
2022-11-14T14:43:24.638Z,9.40
2022-11-14T14:45:54.223Z,9.30
2022-11-14T14:48:24.232Z,9.30
2022-11-14T14:50:52.552Z,9.20
2022-11-14T14:53:21.308Z,9.30
2022-11-14T14:55:52.999Z,9.20
2022-11-14T14:58:26.007Z,9.20
2022-11-14T15:00:56.381Z,9.10
2022-11-14T15:03:24.115Z,9.20
2022-11-14T15:05:58.329Z,9.10
2022-11-14T15:08:26.536Z,9.10
2022-11-14T15:10:55.287Z,9.00
2022-11-14T15:13:23.838Z,8.90
2022-11-14T15:15:51.639Z,9.00
2022-11-14T15:18:24.813Z,8.90
2022-11-14T15:21:08.919Z,8.80
2022-11-14T15:23:37.478Z,8.80
2022-11-14T15:26:06.881Z,8.80
2022-11-14T15:28:34.746Z,8.80
2022-11-14T15:31:03.383Z,8.80
2022-11-14T15:33:33.071Z,8.80
2022-11-14T15:36:07.886Z,8.70
2022-11-14T15:38:44.572Z,8.70
2022-11-14T15:41:20.061Z,8.70
2022-11-14T15:43:50.272Z,8.60
2022-11-14T15:46:28.411Z,8.50
2022-11-14T15:48:57.362Z,8.60
2022-11-14T15:51:44.778Z,8.50
2022-11-14T15:54:26.179Z,8.50
2022-11-14T15:56:54.353Z,8.50
2022-11-14T15:59:22.233Z,8.40
2022-11-14T16:01:51.281Z,8.40
2022-11-14T16:04:21.070Z,8.30
2022-11-14T16:06:48.805Z,8.30
2022-11-14T16:09:17.396Z,8.30
2022-11-14T16:11:45.291Z,8.30
2022-11-14T16:14:13.023Z,8.30
2022-11-14T16:16:40.784Z,8.20
2022-11-14T16:19:08.443Z,8.20
2022-11-14T16:21:38.124Z,8.20
2022-11-14T16:24:06.016Z,8.20
2022-11-14T16:26:33.704Z,8.20
2022-11-14T16:29:01.397Z,8.20
2022-11-14T16:31:28.951Z,8.30
2022-11-14T16:33:57.959Z,8.20
2022-11-14T16:36:25.792Z,8.20
2022-11-14T16:38:59.231Z,8.10
2022-11-14T16:41:26.791Z,8.10
2022-11-14T16:43:55.080Z,8.20
2022-11-14T16:46:23.034Z,8.10
2022-11-14T16:48:50.613Z,8.10
2022-11-14T16:51:46.066Z,8.10
2022-11-14T16:54:07.167Z,8.00
2022-11-14T16:56:34.785Z,7.90
2022-11-14T16:59:02.387Z,8.00
2022-11-14T17:01:29.999Z,7.90
2022-11-14T17:03:59.877Z,7.90
2022-11-14T17:06:27.502Z,7.90
2022-11-14T17:08:55.686Z,7.90
2022-11-14T17:11:24.875Z,7.90
2022-11-14T17:13:52.409Z,7.80
2022-11-14T17:16:19.987Z,7.80
2022-11-14T17:18:51.066Z,7.80
2022-11-14T17:21:18.802Z,7.80
2022-11-14T17:23:46.357Z,7.70
2022-11-14T17:26:14.813Z,7.70
2022-11-14T17:28:46.177Z,7.80
2022-11-14T17:31:14.066Z,7.80
2022-11-14T17:33:41.688Z,7.60
2022-11-14T17:36:10.564Z,7.70
2022-11-14T17:38:38.781Z,7.70
2022-11-14T17:41:06.632Z,7.70
2022-11-14T17:43:38.683Z,7.60
2022-11-14T17:46:14.279Z,7.70
2022-11-14T17:48:43.194Z,7.70
2022-11-14T17:51:11.820Z,7.60
2022-11-14T17:53:39.438Z,7.60
2022-11-14T17:56:07.649Z,7.60
2022-11-14T17:58:35.319Z,7.60
2022-11-14T18:01:02.987Z,7.60
2022-11-14T18:03:31.848Z,7.60
2022-11-14T18:06:05.530Z,7.70
2022-11-14T18:08:33.332Z,7.70
2022-11-14T18:11:01.414Z,7.70
2022-11-14T18:13:29.083Z,7.60
2022-11-14T18:16:00.817Z,7.60
2022-11-14T18:18:28.855Z,7.60
2022-11-14T18:20:58.057Z,7.70
2022-11-14T18:23:26.142Z,7.60
2022-11-14T18:25:53.700Z,7.60
2022-11-14T18:28:22.678Z,7.60
2022-11-14T18:30:56.566Z,7.60
2022-11-14T18:33:24.150Z,7.50
2022-11-14T18:35:59.502Z,7.60
2022-11-14T18:38:30.348Z,7.70
2022-11-14T18:40:58.432Z,7.60
2022-11-14T18:43:26.410Z,7.60
2022-11-14T18:45:54.035Z,7.50
2022-11-14T18:48:22.001Z,7.50
2022-11-14T18:50:49.581Z,7.60
2022-11-14T18:53:18.490Z,7.60
2022-11-14T18:55:47.487Z,7.50
2022-11-14T18:58:15.270Z,7.50
2022-11-14T19:00:42.921Z,7.50
2022-11-14T19:03:10.953Z,7.50
2022-11-14T19:05:38.793Z,7.50
2022-11-14T19:08:07.630Z,7.50
2022-11-14T19:10:36.670Z,7.50
2022-11-14T19:13:04.330Z,7.50
2022-11-14T19:15:32.192Z,7.40
2022-11-14T19:17:59.895Z,7.50
2022-11-14T19:20:27.501Z,7.50
2022-11-14T19:22:55.096Z,7.50
2022-11-14T19:25:22.689Z,7.40
2022-11-14T19:27:54.692Z,7.30
2022-11-14T19:30:22.385Z,7.30
2022-11-14T19:32:50.009Z,7.30
2022-11-14T19:35:20.673Z,7.30
2022-11-14T19:37:48.495Z,7.30
2022-11-14T19:40:16.185Z,7.30
2022-11-14T19:42:43.909Z,7.30
2022-11-14T19:45:13.170Z,7.30
2022-11-14T19:47:40.895Z,7.30
2022-11-14T19:50:09.823Z,7.20
2022-11-14T19:52:37.642Z,7.20
2022-11-14T19:55:05.578Z,7.10
2022-11-14T19:57:33.230Z,7.10
2022-11-14T20:00:00.849Z,7.20
2022-11-14T20:02:29.898Z,7.10
2022-11-14T20:04:57.642Z,7.00
2022-11-14T20:07:25.493Z,7.00
2022-11-14T20:09:53.207Z,7.00
2022-11-14T20:12:20.816Z,7.00
2022-11-14T20:14:48.478Z,6.90
2022-11-14T20:17:16.094Z,7.00
2022-11-14T20:19:45.010Z,7.00
2022-11-14T20:22:12.595Z,7.00
2022-11-14T20:24:40.200Z,7.00
2022-11-14T20:27:07.841Z,7.00
2022-11-14T20:29:35.469Z,6.90
2022-11-14T20:32:03.770Z,7.00
2022-11-14T20:34:32.264Z,7.00
2022-11-14T20:37:16.435Z,7.00
2022-11-14T20:39:43.998Z,7.10
2022-11-14T20:42:11.579Z,7.20
2022-11-14T20:44:39.303Z,7.10
2022-11-14T20:47:10.814Z,7.00
2022-11-14T20:49:38.877Z,7.00
2022-11-14T20:52:08.597Z,6.90
2022-11-14T20:54:36.634Z,7.00
2022-11-14T20:57:04.224Z,6.90
2022-11-14T20:59:31.923Z,6.90
2022-11-14T21:01:59.651Z,6.80
2022-11-14T21:04:27.250Z,6.80
2022-11-14T21:06:54.891Z,6.80
2022-11-14T21:09:23.875Z,6.70
2022-11-14T21:11:51.487Z,6.80
2022-11-14T21:14:19.116Z,6.80
2022-11-14T21:16:46.713Z,6.80
2022-11-14T21:19:14.260Z,6.70
2022-11-14T21:21:41.942Z,6.80
2022-11-14T21:24:09.612Z,6.70
2022-11-14T21:26:39.716Z,6.70
2022-11-14T21:29:08.997Z,6.70
2022-11-14T21:31:38.294Z,6.70
2022-11-14T21:34:06.729Z,6.70
2022-11-14T21:36:49.937Z,6.80
2022-11-14T21:39:17.948Z,6.70
2022-11-14T21:41:48.442Z,6.70
2022-11-14T21:44:17.601Z,6.80
2022-11-14T21:46:46.974Z,6.70
2022-11-14T21:49:14.813Z,6.80
2022-11-14T21:51:42.400Z,6.70
2022-11-14T21:54:10.255Z,6.70
2022-11-14T21:56:37.857Z,6.70
2022-11-14T21:59:15.139Z,6.80
2022-11-14T22:02:01.895Z,6.70
2022-11-14T22:04:29.657Z,6.70
2022-11-14T22:06:57.259Z,6.70
2022-11-14T22:09:27.019Z,6.70
2022-11-14T22:11:54.591Z,6.70
2022-11-14T22:14:23.505Z,6.70
2022-11-14T22:16:51.167Z,6.60
2022-11-14T22:19:18.927Z,6.60
2022-11-14T22:21:46.699Z,6.60
2022-11-14T22:24:14.373Z,6.60
2022-11-14T22:26:42.157Z,6.50
2022-11-14T22:29:09.927Z,6.50
2022-11-14T22:31:39.003Z,6.50
2022-11-14T22:34:07.033Z,6.50
2022-11-14T22:36:34.597Z,6.40
2022-11-14T22:39:02.324Z,6.40
2022-11-14T22:41:32.989Z,6.40
2022-11-14T22:44:01.264Z,6.40
2022-11-14T22:46:29.260Z,6.40
2022-11-14T22:48:58.234Z,6.40
2022-11-14T22:51:26.436Z,6.40
2022-11-14T22:53:54.864Z,6.40
2022-11-14T22:56:23.484Z,6.40
2022-11-14T22:58:51.285Z,6.40
2022-11-14T23:01:19.619Z,6.40
2022-11-14T23:03:48.342Z,6.30
2022-11-14T23:06:18.685Z,6.30
2022-11-14T23:08:46.367Z,6.30
2022-11-14T23:11:15.100Z,6.30
2022-11-14T23:13:43.411Z,6.30
2022-11-14T23:16:11.380Z,6.20
2022-11-14T23:18:38.959Z,6.20
2022-11-14T23:21:06.694Z,6.20
2022-11-14T23:23:35.578Z,6.20
2022-11-14T23:26:03.575Z,6.20
2022-11-14T23:28:31.447Z,6.20
2022-11-14T23:30:59.633Z,6.20
2022-11-14T23:33:27.581Z,6.20
2022-11-14T23:35:55.124Z,6.10
2022-11-14T23:38:23.290Z,6.20
2022-11-14T23:40:54.971Z,6.20
2022-11-14T23:43:22.740Z,6.20
2022-11-14T23:45:50.437Z,6.10
2022-11-14T23:48:18.480Z,6.00
2022-11-14T23:50:46.057Z,6.10
2022-11-14T23:53:13.615Z,6.00
2022-11-14T23:55:42.010Z,6.10
2022-11-14T23:58:10.941Z,6.00
